Time;durP1;ratioP1;P1;durP2;ratioP2;P2;SDS_P1;SDS_P2;PMS_P1;PMS_P2;Temp;Humidity;BMP_temperature;BMP_pressure;BME280_temperature;BME280_humidity;BME280_pressure;Samples;Min_cycle;Max_cycle;Signal;HPM_P1;HPM_P2
2022/11/28 00:01:42;;;;;;;4.73;3.47;;;8.00;99.90;;;;;;5050933;28;20472;-80
2022/11/28 00:04:09;;;;;;;8.53;4.47;;;8.00;99.90;;;;;;5048780;28;20552;-79
2022/11/28 00:06:37;;;;;;;7.27;3.63;;;8.00;99.90;;;;;;5055832;28;20509;-82
2022/11/28 00:09:05;;;;;;;4.73;3.43;;;7.90;99.90;;;;;;5045182;28;20484;-82
2022/11/28 00:11:32;;;;;;;5.87;4.20;;;7.90;99.90;;;;;;5052118;28;20552;-80
2022/11/28 00:13:59;;;;;;;4.73;3.57;;;7.80;99.90;;;;;;5042249;28;20551;-80
2022/11/28 00:16:25;;;;;;;7.60;4.40;;;7.80;99.90;;;;;;5042098;28;20483;-80
2022/11/28 00:18:55;;;;;;;6.27;3.77;;;7.80;99.90;;;;;;5060949;28;20519;-82
2022/11/28 00:21:23;;;;;;;7.57;4.20;;;7.80;99.90;;;;;;5062490;28;20472;-79
2022/11/28 00:23:50;;;;;;;6.37;4.10;;;7.70;99.90;;;;;;5053375;28;20903;-80
2022/11/28 00:26:20;;;;;;;6.20;4.30;;;7.70;99.90;;;;;;5043147;28;20543;-80
2022/11/28 00:28:47;;;;;;;6.53;4.23;;;7.80;99.90;;;;;;5042333;28;20458;-79
2022/11/28 00:31:15;;;;;;;6.70;3.93;;;7.70;99.90;;;;;;5042845;28;20526;-83
2022/11/28 00:33:42;;;;;;;6.43;3.77;;;7.70;99.90;;;;;;5057343;28;20527;-80
2022/11/28 00:36:11;;;;;;;5.00;3.70;;;7.70;99.90;;;;;;5051588;28;21024;-80
2022/11/28 00:38:38;;;;;;;6.90;4.30;;;7.70;99.90;;;;;;5042419;28;20560;-78
2022/11/28 00:41:08;;;;;;;6.23;4.30;;;7.70;99.90;;;;;;5049987;28;20547;-80
2022/11/28 00:43:35;;;;;;;5.97;4.27;;;7.70;99.90;;;;;;5053997;28;20460;-79
2022/11/28 00:46:03;;;;;;;5.53;3.80;;;7.70;99.90;;;;;;5049516;28;20476;-81
2022/11/28 00:48:29;;;;;;;6.43;4.43;;;7.70;99.90;;;;;;5043861;28;20453;-79
2022/11/28 00:51:06;;;;;;;8.03;5.23;;;7.70;99.90;;;;;;5049525;28;20572;-82
2022/11/28 00:53:35;;;;;;;7.20;4.00;;;7.70;99.90;;;;;;5062296;28;20452;-81
2022/11/28 00:56:04;;;;;;;6.47;5.23;;;7.70;99.90;;;;;;5061701;28;20447;-83
2022/11/28 00:58:32;;;;;;;6.03;3.90;;;7.70;99.90;;;;;;5057937;28;20447;-79
2022/11/28 01:00:59;;;;;;;7.90;5.70;;;7.70;99.90;;;;;;5046963;28;21063;-79
2022/11/28 01:03:26;;;;;;;9.50;4.70;;;7.70;99.90;;;;;;5061466;28;20556;-81
2022/11/28 01:05:52;;;;;;;4.90;3.70;;;7.70;99.90;;;;;;5059890;28;20463;-82
2022/11/28 01:08:19;;;;;;;6.83;3.87;;;7.70;99.90;;;;;;5050464;28;20547;-80
2022/11/28 01:10:47;;;;;;;6.70;4.67;;;7.70;99.90;;;;;;5061021;28;20550;-79
2022/11/28 01:13:14;;;;;;;6.90;4.17;;;7.70;99.90;;;;;;5059861;28;20536;-80
2022/11/28 01:15:42;;;;;;;6.13;3.70;;;7.80;99.90;;;;;;5060523;28;20550;-81
2022/11/28 01:18:09;;;;;;;3.90;3.50;;;7.80;99.90;;;;;;5040922;28;20528;-79
2022/11/28 01:20:36;;;;;;;9.73;4.60;;;7.80;99.90;;;;;;5040941;28;20988;-80
2022/11/28 01:23:03;;;;;;;7.37;4.23;;;7.80;99.90;;;;;;5060113;28;20452;-80
2022/11/28 01:25:30;;;;;;;6.97;4.40;;;7.80;99.90;;;;;;5050875;28;20520;-82
2022/11/28 01:27:59;;;;;;;7.37;4.13;;;7.80;99.90;;;;;;5039531;28;20883;-81
2022/11/28 01:30:25;;;;;;;5.70;4.57;;;7.80;99.90;;;;;;5047428;28;20481;-83
2022/11/28 01:32:52;;;;;;;5.83;4.63;;;7.70;99.90;;;;;;5055897;28;21048;-81
2022/11/28 01:35:19;;;;;;;6.10;4.20;;;7.80;99.90;;;;;;5056655;28;20535;-79
2022/11/28 01:37:46;;;;;;;4.73;3.90;;;7.70;99.90;;;;;;5048408;28;21044;-81
2022/11/28 01:40:14;;;;;;;8.50;4.03;;;7.70;99.90;;;;;;5045009;28;20531;-84
2022/11/28 01:42:41;;;;;;;5.93;4.33;;;7.80;99.90;;;;;;5060157;28;20483;-81
2022/11/28 01:45:16;;;;;;;7.50;5.37;;;7.80;99.90;;;;;;5044567;28;20450;-82
2022/11/28 01:47:44;;;;;;;5.50;4.33;;;7.80;99.90;;;;;;5020294;28;20548;-80
2022/11/28 01:50:12;;;;;;;4.50;3.97;;;7.80;99.90;;;;;;5028590;28;20455;-80
2022/11/28 01:52:43;;;;;;;4.43;3.67;;;7.90;99.90;;;;;;5042737;28;20592;-80
2022/11/28 01:55:12;;;;;;;6.10;4.40;;;7.80;99.90;;;;;;5054345;28;21046;-81
2022/11/28 01:57:40;;;;;;;5.77;4.07;;;7.80;99.90;;;;;;5039575;28;20461;-79
2022/11/28 02:00:11;;;;;;;6.17;4.23;;;7.80;99.90;;;;;;5056190;28;20575;-82
2022/11/28 02:02:43;;;;;;;5.33;4.10;;;7.80;99.90;;;;;;5052210;28;20826;-82
2022/11/28 02:05:10;;;;;;;4.80;3.60;;;7.80;99.90;;;;;;5041829;28;20535;-79
2022/11/28 02:07:37;;;;;;;7.70;4.27;;;7.80;99.90;;;;;;5041254;28;20461;-82
2022/11/28 02:10:08;;;;;;;9.73;4.80;;;7.80;99.90;;;;;;5040119;28;20468;-80
2022/11/28 02:12:49;;;;;;;5.03;3.77;;;7.90;99.90;;;;;;5040353;28;20560;-82
2022/11/28 02:15:31;;;;;;;5.93;4.83;;;7.90;99.90;;;;;;5041078;28;20533;-80
2022/11/28 02:18:14;;;;;;;6.13;4.70;;;7.80;99.90;;;;;;5043515;28;20453;-78
2022/11/28 02:21:05;;;;;;;7.50;4.73;;;7.80;99.90;;;;;;5040003;28;20484;-80
2022/11/28 02:23:58;;;;;;;5.57;5.00;;;7.80;99.90;;;;;;5024005;28;20545;-81
2022/11/28 02:27:10;;;;;;;6.50;5.07;;;7.80;99.90;;;;;;5058745;28;20468;-79
2022/11/28 02:30:02;;;;;;;6.10;4.57;;;7.80;99.90;;;;;;4943404;29;20524;-80
2022/11/28 02:32:38;;;;;;;6.67;4.40;;;7.70;99.90;;;;;;5031441;28;20487;-79
2022/11/28 02:35:12;;;;;;;4.77;3.80;;;7.70;99.90;;;;;;5060130;28;20459;-80
2022/11/28 02:37:46;;;;;;;7.00;5.13;;;7.70;99.90;;;;;;5051567;28;20535;-81
2022/11/28 02:40:21;;;;;;;6.57;4.60;;;7.70;99.90;;;;;;5035694;28;20463;-81
2022/11/28 02:43:00;;;;;;;6.70;4.67;;;7.70;99.90;;;;;;5040564;28;20471;-82
2022/11/28 02:45:34;;;;;;;9.17;4.63;;;7.80;99.90;;;;;;5042762;28;20476;-81
2022/11/28 02:48:06;;;;;;;6.33;4.20;;;7.80;99.90;;;;;;5053968;28;20548;-79
2022/11/28 02:50:40;;;;;;;6.60;4.80;;;7.80;99.90;;;;;;5044307;28;20472;-78
2022/11/28 02:53:12;;;;;;;5.60;4.50;;;7.80;99.90;;;;;;5054469;28;20994;-80
2022/11/28 02:55:40;;;;;;;5.37;4.40;;;7.80;99.90;;;;;;5062376;28;20458;-80
2022/11/28 02:58:09;;;;;;;8.97;4.63;;;7.70;99.90;;;;;;5061513;28;20841;-80
2022/11/28 03:00:38;;;;;;;5.60;4.47;;;7.80;99.90;;;;;;5051407;28;20535;-79
2022/11/28 03:03:20;;;;;;;5.97;3.90;;;7.80;99.90;;;;;;5043075;28;20481;-79
2022/11/28 03:05:55;;;;;;;5.33;4.30;;;7.90;99.90;;;;;;5029961;28;20532;-78
2022/11/28 03:08:35;;;;;;;5.87;4.50;;;7.90;99.90;;;;;;5055479;28;20447;-80
2022/11/28 03:11:09;;;;;;;6.57;4.23;;;7.80;99.90;;;;;;5062336;28;20507;-81
2022/11/28 03:13:41;;;;;;;4.60;3.63;;;7.80;99.90;;;;;;5053461;28;20535;-83
2022/11/28 03:16:17;;;;;;;6.70;4.87;;;7.90;99.90;;;;;;5043358;28;20500;-82
2022/11/28 03:18:57;;;;;;;5.43;4.03;;;8.00;99.90;;;;;;5047999;28;20461;-82
2022/11/28 03:21:31;;;;;;;6.77;4.40;;;7.90;99.90;;;;;;5021812;28;20476;-81
2022/11/28 03:24:03;;;;;;;6.67;3.63;;;7.90;99.90;;;;;;5056671;28;20540;-80
2022/11/28 03:26:38;;;;;;;5.40;4.13;;;8.00;99.90;;;;;;5050599;28;20542;-81
2022/11/28 03:29:13;;;;;;;9.17;4.43;;;8.10;99.90;;;;;;5057838;28;20448;-80
2022/11/28 03:31:42;;;;;;;6.27;4.10;;;8.10;99.90;;;;;;5060621;28;20519;-81
2022/11/28 03:34:17;;;;;;;5.90;4.40;;;8.10;99.90;;;;;;5044600;28;20458;-79
2022/11/28 03:36:48;;;;;;;6.03;4.27;;;8.00;99.90;;;;;;5052896;28;20533;-79
2022/11/28 03:39:19;;;;;;;4.83;3.57;;;8.00;99.90;;;;;;5042651;28;20453;-80
2022/11/28 03:41:50;;;;;;;8.27;4.20;;;8.00;99.90;;;;;;5041137;28;20504;-78
2022/11/28 03:44:21;;;;;;;5.77;4.50;;;8.00;99.90;;;;;;5058700;28;20453;-82
2022/11/28 03:46:49;;;;;;;4.93;3.70;;;7.90;99.90;;;;;;5048756;28;20454;-81
2022/11/28 03:49:23;;;;;;;4.70;4.00;;;8.00;99.90;;;;;;5040843;28;20817;-81
2022/11/28 03:51:55;;;;;;;5.20;4.30;;;8.00;99.90;;;;;;5050865;28;20574;-80
2022/11/28 03:54:27;;;;;;;5.83;4.03;;;8.00;99.90;;;;;;5060171;28;20485;-78
2022/11/28 03:57:00;;;;;;;9.20;5.43;;;8.00;99.90;;;;;;5059856;28;20515;-81
2022/11/28 03:59:34;;;;;;;7.67;4.57;;;8.10;99.90;;;;;;5056240;28;20457;-82
2022/11/28 04:02:05;;;;;;;5.43;4.17;;;8.10;99.90;;;;;;5042175;28;20473;-80
2022/11/28 04:04:39;;;;;;;5.80;3.60;;;8.10;99.90;;;;;;5060139;28;20982;-79
2022/11/28 04:07:16;;;;;;;5.90;4.03;;;8.00;99.90;;;;;;5048037;28;20490;-81
2022/11/28 04:09:47;;;;;;;5.50;4.23;;;8.00;99.90;;;;;;5060133;28;20496;-81
2022/11/28 04:12:21;;;;;;;4.77;3.87;;;8.10;99.90;;;;;;5047428;28;20575;-80
2022/11/28 04:14:53;;;;;;;5.70;4.37;;;8.10;99.90;;;;;;5023258;28;20458;-80
2022/11/28 04:17:30;;;;;;;6.23;4.40;;;8.00;99.90;;;;;;5057106;28;20515;-81
2022/11/28 04:20:05;;;;;;;5.27;3.67;;;8.00;99.90;;;;;;5039818;28;20452;-81
2022/11/28 04:22:37;;;;;;;8.17;3.77;;;8.00;99.90;;;;;;5041686;28;21005;-79
2022/11/28 04:25:09;;;;;;;4.90;3.33;;;8.00;99.90;;;;;;5060202;28;20555;-81
2022/11/28 04:27:39;;;;;;;6.10;3.70;;;8.10;99.90;;;;;;5057620;28;20970;-79
2022/11/28 04:30:08;;;;;;;5.50;3.80;;;8.10;99.90;;;;;;5039355;28;20449;-79
2022/11/28 04:32:38;;;;;;;5.37;3.47;;;8.10;99.90;;;;;;5038753;28;20506;-79
2022/11/28 04:35:11;;;;;;;5.20;4.10;;;8.10;99.90;;;;;;5044714;28;20460;-80
2022/11/28 04:37:42;;;;;;;5.47;4.07;;;8.10;99.90;;;;;;5039813;28;20488;-80
2022/11/28 04:40:11;;;;;;;5.60;4.37;;;8.10;99.90;;;;;;5043143;28;20488;-83
2022/11/28 04:42:43;;;;;;;6.70;4.13;;;8.10;99.90;;;;;;5040378;28;20921;-81
2022/11/28 04:45:16;;;;;;;7.83;4.37;;;8.10;99.90;;;;;;5040090;28;20448;-80
2022/11/28 04:47:43;;;;;;;8.10;4.60;;;8.00;99.90;;;;;;5039254;28;20457;-81
2022/11/28 04:50:13;;;;;;;6.43;3.50;;;7.90;99.90;;;;;;5039672;28;20453;-79
2022/11/28 04:52:47;;;;;;;6.40;3.47;;;7.80;99.90;;;;;;5046577;28;20487;-79
2022/11/28 04:55:22;;;;;;;6.00;3.40;;;7.80;99.90;;;;;;5043357;28;20458;-80
2022/11/28 04:57:53;;;;;;;5.00;3.50;;;7.90;99.90;;;;;;5037285;28;20474;-79
2022/11/28 05:00:21;;;;;;;7.60;4.37;;;7.90;99.90;;;;;;5039563;28;20868;-81
2022/11/28 05:02:51;;;;;;;5.30;3.50;;;7.90;99.90;;;;;;5052803;28;20986;-81
2022/11/28 05:05:21;;;;;;;4.97;3.73;;;8.00;99.90;;;;;;5039877;28;20487;-81
2022/11/28 05:07:48;;;;;;;5.43;4.37;;;8.00;99.90;;;;;;5042264;28;20457;-81
2022/11/28 05:10:17;;;;;;;4.33;3.63;;;8.00;99.90;;;;;;5040612;28;20603;-80
2022/11/28 05:12:43;;;;;;;6.20;4.00;;;8.10;99.90;;;;;;5036995;28;20852;-79
2022/11/28 05:15:11;;;;;;;5.30;3.50;;;8.10;99.90;;;;;;5045385;28;20463;-80
2022/11/28 05:17:38;;;;;;;5.17;3.90;;;8.20;99.90;;;;;;5039352;28;20459;-80
2022/11/28 05:20:06;;;;;;;5.13;3.87;;;8.20;99.90;;;;;;5039100;28;20460;-83
2022/11/28 05:22:34;;;;;;;7.07;4.40;;;8.10;99.90;;;;;;5036508;28;20494;-80
2022/11/28 05:25:01;;;;;;;4.80;3.50;;;8.10;99.90;;;;;;5039072;28;20933;-79
2022/11/28 05:27:28;;;;;;;5.07;3.40;;;8.10;99.90;;;;;;5037162;28;20870;-80
2022/11/28 05:29:55;;;;;;;6.57;4.00;;;8.10;99.90;;;;;;5035491;28;20456;-78
2022/11/28 05:32:22;;;;;;;5.77;3.50;;;8.10;99.90;;;;;;5035212;28;20490;-78
2022/11/28 05:34:49;;;;;;;4.87;4.10;;;8.10;99.90;;;;;;5035022;28;20455;-81
2022/11/28 05:37:16;;;;;;;5.50;3.60;;;8.20;99.90;;;;;;5044752;28;20452;-79
2022/11/28 05:39:44;;;;;;;6.13;3.80;;;8.30;99.90;;;;;;5035997;28;20455;-80
2022/11/28 05:42:11;;;;;;;4.90;3.10;;;8.30;99.90;;;;;;5036136;28;20559;-78
2022/11/28 05:44:38;;;;;;;6.40;4.00;;;8.30;99.90;;;;;;5052714;28;20449;-81
2022/11/28 05:47:04;;;;;;;6.40;4.10;;;8.20;99.90;;;;;;5046608;28;20455;-80
2022/11/28 05:49:31;;;;;;;5.43;4.10;;;8.30;99.90;;;;;;5052301;28;20488;-79
2022/11/28 05:54:26;;;;;;;5.70;3.27;;;8.30;99.90;;;;;;5079267;28;20474;-82
2022/11/28 05:56:54;;;;;;;5.40;3.70;;;8.30;99.90;;;;;;5083297;28;20518;-83
2022/11/28 05:59:21;;;;;;;6.83;4.00;;;8.20;99.90;;;;;;5083692;28;20530;-83
2022/11/28 06:01:48;;;;;;;7.60;4.10;;;8.30;99.90;;;;;;5083219;28;20450;-81
2022/11/28 06:04:15;;;;;;;11.13;4.20;;;8.30;99.90;;;;;;5075951;28;20488;-80
2022/11/28 06:06:42;;;;;;;7.90;4.73;;;8.30;99.90;;;;;;5071121;28;20447;-82
2022/11/28 06:09:09;;;;;;;8.53;4.33;;;8.20;99.90;;;;;;5081338;28;20522;-80
2022/11/28 06:11:36;;;;;;;5.20;3.90;;;8.20;99.90;;;;;;5082288;28;20515;-79
2022/11/28 06:14:04;;;;;;;4.37;3.60;;;8.20;99.90;;;;;;5083641;28;20538;-81
2022/11/28 06:16:32;;;;;;;5.20;3.60;;;8.20;99.90;;;;;;5084607;28;20450;-80
2022/11/28 06:19:01;;;;;;;4.13;3.73;;;8.20;99.90;;;;;;5091464;28;20521;-81
2022/11/28 06:21:29;;;;;;;4.63;3.63;;;8.30;99.90;;;;;;5096075;28;20518;-80
2022/11/28 06:23:57;;;;;;;5.57;4.30;;;8.30;99.90;;;;;;5107036;28;20491;-80
2022/11/28 06:26:25;;;;;;;5.57;3.97;;;8.30;99.90;;;;;;5098965;28;20510;-80
2022/11/28 06:28:54;;;;;;;4.93;3.97;;;8.30;99.90;;;;;;5106724;28;20491;-80
2022/11/28 06:31:24;;;;;;;6.70;3.67;;;8.30;99.90;;;;;;5099202;28;20455;-80
2022/11/28 06:33:51;;;;;;;5.83;4.30;;;8.30;99.90;;;;;;5080141;28;20569;-81
2022/11/28 06:36:19;;;;;;;5.57;3.60;;;8.30;99.90;;;;;;5080967;28;20471;-80
2022/11/28 06:38:46;;;;;;;7.27;4.00;;;8.30;99.90;;;;;;5078170;28;20527;-81
2022/11/28 06:41:15;;;;;;;6.67;4.20;;;8.30;99.90;;;;;;5077237;28;20447;-82
2022/11/28 06:43:43;;;;;;;5.70;4.23;;;8.30;99.90;;;;;;5096628;28;20542;-81
2022/11/28 06:46:12;;;;;;;6.60;4.70;;;8.30;99.90;;;;;;5086238;28;20454;-81
2022/11/28 06:48:40;;;;;;;4.87;3.43;;;8.30;99.90;;;;;;5076556;28;20456;-80
2022/11/28 06:51:07;;;;;;;5.93;4.13;;;8.30;99.90;;;;;;5086525;28;21025;-79
2022/11/28 06:53:35;;;;;;;5.27;4.57;;;8.30;99.90;;;;;;5091694;28;20547;-80
2022/11/28 06:56:06;;;;;;;5.70;4.23;;;8.20;99.90;;;;;;5086910;28;20518;-80
2022/11/28 06:58:33;;;;;;;4.80;3.63;;;8.30;99.90;;;;;;5090195;28;20450;-80
2022/11/28 07:01:06;;;;;;;5.73;3.83;;;8.30;99.90;;;;;;5097068;28;20460;-78
2022/11/28 07:03:33;;;;;;;5.60;4.10;;;8.20;99.90;;;;;;5095445;28;20466;-81
2022/11/28 07:06:02;;;;;;;7.20;3.33;;;8.30;99.90;;;;;;5078372;28;20546;-81
2022/11/28 07:08:30;;;;;;;7.33;5.10;;;8.20;99.90;;;;;;5076499;28;20482;-82
2022/11/28 07:10:57;;;;;;;6.40;4.00;;;8.20;99.90;;;;;;5078029;28;20442;-82
2022/11/28 07:13:24;;;;;;;6.50;4.70;;;8.30;99.90;;;;;;5085512;28;20501;-80
2022/11/28 07:15:52;;;;;;;6.27;4.70;;;8.30;99.90;;;;;;5086471;28;20443;-81
2022/11/28 07:18:18;;;;;;;7.00;4.70;;;8.20;99.90;;;;;;5095379;28;20481;-81
2022/11/28 07:20:45;;;;;;;6.43;4.50;;;8.20;99.90;;;;;;5103884;28;20513;-81
2022/11/28 07:23:13;;;;;;;6.83;4.03;;;8.20;99.90;;;;;;5101265;28;20949;-80
2022/11/28 07:25:40;;;;;;;2.20;1.40;;;8.20;99.90;;;;;;5099701;28;20540;-81
2022/11/28 07:28:07;;;;;;;8.40;6.13;;;9.70;99.90;;;;;;5099062;28;20696;-81
2022/11/28 07:30:34;;;;;;;7.53;5.63;;;9.90;99.90;;;;;;5081025;28;20452;-81
2022/11/28 07:33:01;;;;;;;7.30;5.03;;;9.50;99.90;;;;;;5094973;28;20492;-80
2022/11/28 07:35:27;;;;;;;6.70;4.03;;;9.20;99.90;;;;;;5100101;28;20481;-81
2022/11/28 07:37:54;;;;;;;8.40;5.07;;;9.00;99.90;;;;;;5085857;28;20460;-80
2022/11/28 07:40:22;;;;;;;6.13;4.10;;;9.00;99.90;;;;;;5099896;28;20457;-79
2022/11/28 07:42:49;;;;;;;6.93;4.67;;;8.80;99.90;;;;;;5086659;28;20912;-80
2022/11/28 07:45:16;;;;;;;6.87;5.10;;;8.80;99.90;;;;;;5078108;28;20453;-80
2022/11/28 07:47:43;;;;;;;6.47;4.77;;;8.80;99.90;;;;;;5083386;28;20459;-81
2022/11/28 07:50:10;;;;;;;4.80;4.13;;;8.80;99.90;;;;;;5079731;28;21091;-80
2022/11/28 07:52:37;;;;;;;5.77;4.20;;;8.70;99.90;;;;;;5099204;28;20565;-79
2022/11/28 07:55:05;;;;;;;5.87;4.40;;;8.70;99.90;;;;;;5100652;28;20451;-79
2022/11/28 07:57:33;;;;;;;7.30;4.40;;;8.70;99.90;;;;;;5083163;28;21023;-81
2022/11/28 08:00:00;;;;;;;7.30;4.50;;;8.70;99.90;;;;;;5098163;28;21335;-81
2022/11/28 08:02:31;;;;;;;6.43;4.27;;;8.70;99.90;;;;;;5093999;28;20526;-77
2022/11/28 08:04:58;;;;;;;7.93;4.80;;;8.70;99.90;;;;;;5082295;28;20452;-80
2022/11/28 08:07:25;;;;;;;5.13;3.67;;;8.70;99.90;;;;;;5092676;28;20477;-81
2022/11/28 08:09:52;;;;;;;5.73;4.13;;;8.70;99.90;;;;;;5078524;28;20531;-80
2022/11/28 08:12:19;;;;;;;8.10;5.63;;;8.80;99.90;;;;;;5083664;28;20485;-81
2022/11/28 08:14:47;;;;;;;6.37;4.70;;;8.70;99.90;;;;;;5103765;28;20447;-80
2022/11/28 08:17:14;;;;;;;6.50;5.07;;;8.70;99.90;;;;;;5092114;28;20542;-81
2022/11/28 08:19:40;;;;;;;5.60;4.03;;;8.70;99.90;;;;;;5093449;28;20427;-81
2022/11/28 08:22:07;;;;;;;6.60;4.40;;;8.70;99.90;;;;;;5102681;28;20456;-81
2022/11/28 08:24:34;;;;;;;8.80;4.50;;;8.90;99.90;;;;;;5088649;28;20523;-80
2022/11/28 08:27:01;;;;;;;8.87;4.53;;;8.90;99.90;;;;;;5088485;28;20456;-82
2022/11/28 08:29:28;;;;;;;5.40;4.50;;;8.90;99.90;;;;;;5079232;28;20517;-81
2022/11/28 08:31:56;;;;;;;8.97;5.07;;;8.90;99.90;;;;;;5097862;28;20456;-80
2022/11/28 08:34:24;;;;;;;6.80;3.80;;;8.80;99.90;;;;;;5089133;28;20456;-80
2022/11/28 08:36:51;;;;;;;5.60;3.80;;;9.00;99.90;;;;;;5087305;28;20482;-81
2022/11/28 08:39:18;;;;;;;5.80;4.17;;;9.00;99.90;;;;;;5098716;28;20482;-80
2022/11/28 08:41:45;;;;;;;8.83;5.43;;;9.00;99.90;;;;;;5078053;28;20462;-80
2022/11/28 08:44:13;;;;;;;8.23;4.30;;;9.00;99.90;;;;;;5077853;28;20511;-80
2022/11/28 08:46:40;;;;;;;7.10;4.33;;;9.00;99.90;;;;;;5078142;28;20541;-81
2022/11/28 08:49:08;;;;;;;4.90;3.93;;;9.00;99.90;;;;;;5076718;28;20487;-81
2022/11/28 08:51:35;;;;;;;5.67;4.53;;;9.10;99.90;;;;;;5084103;28;20548;-80
2022/11/28 08:54:01;;;;;;;5.57;4.77;;;9.10;99.90;;;;;;5076862;28;20517;-79
2022/11/28 08:56:28;;;;;;;5.10;4.60;;;9.10;99.90;;;;;;5086543;28;21046;-80
2022/11/28 08:58:55;;;;;;;7.30;4.53;;;9.20;99.90;;;;;;5097414;28;20447;-81
2022/11/28 09:01:23;;;;;;;5.07;4.00;;;9.10;99.90;;;;;;5088235;28;20827;-79
2022/11/28 09:03:51;;;;;;;8.73;5.17;;;9.00;99.90;;;;;;5077644;28;20536;-79
2022/11/28 09:06:20;;;;;;;6.40;4.60;;;9.10;99.90;;;;;;5076838;28;20520;-81
2022/11/28 09:08:47;;;;;;;5.90;3.47;;;9.20;99.90;;;;;;5090123;28;20447;-83
2022/11/28 09:11:17;;;;;;;7.10;4.23;;;9.30;99.90;;;;;;5092827;28;20501;-80
2022/11/28 09:13:44;;;;;;;5.37;3.90;;;9.20;99.90;;;;;;5086296;28;20485;-78
2022/11/28 09:16:11;;;;;;;5.40;4.30;;;9.30;99.90;;;;;;5095015;28;20492;-79
2022/11/28 09:18:38;;;;;;;5.90;4.37;;;9.40;99.90;;;;;;5097732;28;20827;-78
2022/11/28 09:21:08;;;;;;;6.50;5.03;;;9.50;99.90;;;;;;5099038;28;20538;-79
2022/11/28 09:23:36;;;;;;;6.60;4.33;;;9.40;99.90;;;;;;5078708;28;20472;-80
2022/11/28 09:26:08;;;;;;;5.17;3.60;;;9.40;99.90;;;;;;5078052;28;20446;-81
2022/11/28 09:28:35;;;;;;;5.33;4.20;;;9.50;99.90;;;;;;5083737;28;20464;-79
2022/11/28 09:31:03;;;;;;;5.87;4.10;;;9.40;99.90;;;;;;5087848;28;20451;-81
2022/11/28 09:33:30;;;;;;;6.77;4.10;;;9.50;99.90;;;;;;5096158;28;20842;-80
2022/11/28 09:35:58;;;;;;;6.60;4.40;;;9.60;99.90;;;;;;5084605;28;20809;-80
2022/11/28 09:38:26;;;;;;;6.67;4.40;;;9.70;99.90;;;;;;5082260;28;20833;-80
2022/11/28 09:40:54;;;;;;;9.13;4.77;;;9.70;99.90;;;;;;5075016;28;20453;-80
2022/11/28 09:43:29;;;;;;;5.43;4.20;;;9.80;99.90;;;;;;5082008;28;20463;-79
2022/11/28 09:45:59;;;;;;;13.07;9.23;;;9.90;99.90;;;;;;5094901;28;20474;-81
2022/11/28 09:48:30;;;;;;;7.23;4.70;;;10.00;99.90;;;;;;5090732;28;20449;-78
2022/11/28 09:51:06;;;;;;;7.87;4.20;;;10.00;99.90;;;;;;5078716;28;20453;-79
2022/11/28 09:53:39;;;;;;;8.00;4.30;;;10.00;99.90;;;;;;5095559;28;20500;-81
2022/11/28 09:56:13;;;;;;;6.27;4.43;;;10.00;99.90;;;;;;5092791;28;20460;-81
2022/11/28 09:58:45;;;;;;;6.70;4.30;;;10.00;99.90;;;;;;5088435;28;20823;-80
2022/11/28 10:01:16;;;;;;;7.30;3.70;;;10.00;99.90;;;;;;5091623;28;20448;-78
2022/11/28 10:03:53;;;;;;;8.20;4.27;;;10.00;99.90;;;;;;5092938;28;20473;-79
2022/11/28 10:06:23;;;;;;;6.03;4.20;;;10.00;99.90;;;;;;5054559;28;20533;-81
2022/11/28 10:09:22;;;;;;;6.23;4.30;;;9.90;99.90;;;;;;5079237;28;20455;-80
2022/11/28 10:12:01;;;;;;;9.93;4.20;;;10.00;99.90;;;;;;5070053;28;20459;-81
2022/11/28 10:14:54;;;;;;;4.80;3.30;;;10.00;99.90;;;;;;5076815;28;20886;-79
2022/11/28 10:17:29;;;;;;;5.10;4.23;;;9.90;99.90;;;;;;5072312;28;20459;-79
2022/11/28 10:20:01;;;;;;;5.97;4.03;;;10.00;99.90;;;;;;5083549;28;20943;-80
2022/11/28 10:22:35;;;;;;;5.37;4.20;;;10.00;99.90;;;;;;5075949;28;20561;-80
2022/11/28 10:25:08;;;;;;;5.90;4.60;;;9.90;99.90;;;;;;5092264;28;20449;-78
2022/11/28 10:27:36;;;;;;;6.20;4.50;;;9.90;99.90;;;;;;5107615;28;20443;-80
2022/11/28 10:30:08;;;;;;;8.50;4.40;;;9.80;99.90;;;;;;5082864;28;20537;-81
2022/11/28 10:32:40;;;;;;;6.60;4.80;;;9.80;99.90;;;;;;5071857;28;20891;-80
2022/11/28 10:35:15;;;;;;;6.10;3.90;;;9.80;99.90;;;;;;5085601;28;20456;-81
2022/11/28 10:37:43;;;;;;;6.20;4.30;;;9.80;99.90;;;;;;5088177;28;20459;-80
2022/11/28 10:40:25;;;;;;;8.23;4.13;;;9.80;99.90;;;;;;5083708;28;20464;-80
2022/11/28 10:42:59;;;;;;;4.13;2.00;;;9.80;99.90;;;;;;5088839;28;20555;-79
2022/11/28 10:45:32;;;;;;;5.70;3.63;;;11.50;99.90;;;;;;5073580;28;20838;-77
2022/11/28 10:48:12;;;;;;;8.07;4.40;;;12.80;99.90;;;;;;5077236;28;20545;-80
2022/11/28 10:50:49;;;;;;;7.50;4.53;;;12.50;99.90;;;;;;5075759;28;20205;-81
2022/11/28 10:53:27;;;;;;;6.17;3.90;;;12.00;99.90;;;;;;5076906;28;20485;-80
2022/11/28 10:56:07;;;;;;;8.27;4.43;;;11.80;99.90;;;;;;5081859;28;20445;-80
2022/11/28 10:58:46;;;;;;;5.00;3.80;;;11.20;99.90;;;;;;5082732;28;21012;-80
2022/11/28 11:01:13;;;;;;;7.13;4.47;;;11.10;99.90;;;;;;5068058;28;20541;-81
2022/11/28 11:03:41;;;;;;;7.60;4.27;;;11.20;99.90;;;;;;5090580;28;20476;-79
2022/11/28 11:06:08;;;;;;;4.30;3.90;;;10.90;99.90;;;;;;5090124;28;20480;-78
2022/11/28 11:08:37;;;;;;;11.93;5.67;;;10.90;99.90;;;;;;5075339;28;20441;-79
2022/11/28 11:11:10;;;;;;;5.90;4.07;;;10.60;99.90;;;;;;5088110;28;20454;-79
2022/11/28 11:14:04;;;;;;;6.27;4.33;;;10.40;99.90;;;;;;5079472;28;20495;-80
2022/11/28 11:16:52;;;;;;;6.63;4.33;;;10.20;99.90;;;;;;5094394;28;20533;-79
2022/11/28 11:19:27;;;;;;;9.80;5.83;;;10.10;99.90;;;;;;5096156;28;20946;-81
2022/11/28 11:22:04;;;;;;;11.73;6.00;;;10.10;99.90;;;;;;5076800;28;20442;-79
2022/11/28 11:24:32;;;;;;;7.47;4.47;;;9.90;99.90;;;;;;5095370;28;20572;-80
2022/11/28 11:27:14;;;;;;;10.60;6.07;;;10.10;99.90;;;;;;5097330;28;20463;-80
2022/11/28 11:29:45;;;;;;;6.80;4.80;;;10.20;99.90;;;;;;5056438;28;21378;-81
2022/11/28 11:32:25;;;;;;;8.70;5.33;;;10.10;99.90;;;;;;5056719;28;20467;-81
2022/11/28 11:34:52;;;;;;;7.70;5.43;;;10.20;99.90;;;;;;5057799;28;20567;-82
2022/11/28 11:37:31;;;;;;;6.80;5.00;;;10.10;99.90;;;;;;5061515;28;20540;-80
2022/11/28 11:39:59;;;;;;;9.07;5.20;;;10.10;99.90;;;;;;5097354;28;20506;-81
2022/11/28 11:42:27;;;;;;;6.40;4.90;;;10.00;99.90;;;;;;5083900;28;20915;-81
2022/11/28 11:44:56;;;;;;;6.67;4.83;;;9.90;99.90;;;;;;5080189;28;20481;-82
2022/11/28 11:47:41;;;;;;;6.33;5.07;;;9.90;99.90;;;;;;5079397;28;20565;-81
2022/11/28 11:50:17;;;;;;;7.33;5.50;;;9.70;99.90;;;;;;5077310;28;20445;-82
2022/11/28 11:52:44;;;;;;;6.20;5.00;;;9.70;99.90;;;;;;5055574;28;21026;-81
2022/11/28 11:55:14;;;;;;;11.30;5.53;;;9.70;99.90;;;;;;5056798;28;20447;-81
2022/11/28 11:57:47;;;;;;;10.33;6.00;;;9.60;99.90;;;;;;5096659;28;20443;-81
2022/11/28 12:00:21;;;;;;;9.60;5.07;;;9.60;99.90;;;;;;5095220;28;20455;-80
2022/11/28 12:02:54;;;;;;;14.97;5.97;;;9.70;99.90;;;;;;5094415;28;20546;-81
2022/11/28 12:05:30;;;;;;;9.20;5.93;;;9.70;99.90;;;;;;5080824;28;20461;-81
2022/11/28 12:08:01;;;;;;;7.80;5.37;;;9.70;99.90;;;;;;5076184;28;20952;-81
2022/11/28 12:10:31;;;;;;;6.17;5.50;;;9.80;99.90;;;;;;5092601;28;20551;-80
2022/11/28 12:13:01;;;;;;;8.70;6.50;;;9.60;99.90;;;;;;5097289;28;20495;-81
2022/11/28 12:15:40;;;;;;;8.10;5.90;;;9.70;99.90;;;;;;5083058;28;20454;-80
2022/11/28 12:18:22;;;;;;;9.67;5.70;;;9.60;99.90;;;;;;5086195;28;20535;-81
2022/11/28 12:20:59;;;;;;;6.43;5.07;;;9.60;99.90;;;;;;5077478;28;20460;-81
2022/11/28 12:23:48;;;;;;;8.40;5.83;;;9.60;99.90;;;;;;5086627;28;20875;-81
2022/11/28 12:26:23;;;;;;;12.43;5.93;;;9.60;99.90;;;;;;5096255;28;20820;-81
2022/11/28 12:29:06;;;;;;;8.40;5.70;;;9.60;99.90;;;;;;5091279;28;20514;-82
2022/11/28 12:31:43;;;;;;;10.30;6.93;;;9.60;99.90;;;;;;5097261;28;20534;-81
2022/11/28 12:34:19;;;;;;;9.97;6.00;;;9.60;99.90;;;;;;5083890;28;20527;-80
2022/11/28 12:36:56;;;;;;;7.10;5.73;;;9.60;99.90;;;;;;5093789;28;20468;-81
2022/11/28 12:39:35;;;;;;;9.40;5.80;;;9.50;99.90;;;;;;5076163;28;20462;-82
2022/11/28 12:42:16;;;;;;;8.13;6.53;;;9.50;99.90;;;;;;5073840;28;20521;-82
2022/11/28 12:45:24;;;;;;;10.50;6.80;;;9.60;99.90;;;;;;5080726;28;20476;-81
2022/11/28 12:48:00;;;;;;;10.37;5.33;;;9.50;99.90;;;;;;5078670;28;20457;-82
2022/11/28 12:50:33;;;;;;;8.20;6.13;;;9.60;99.90;;;;;;5095228;28;20460;-80
2022/11/28 12:53:21;;;;;;;9.37;6.20;;;9.60;99.90;;;;;;5089243;28;20478;-80
2022/11/28 12:55:55;;;;;;;9.73;7.77;;;9.60;99.90;;;;;;5053031;28;20954;-82
2022/11/28 12:58:26;;;;;;;8.90;5.80;;;9.60;99.90;;;;;;5067761;28;20445;-81
2022/11/28 13:01:00;;;;;;;13.70;6.63;;;9.50;99.90;;;;;;5096047;28;20457;-81
2022/11/28 13:03:39;;;;;;;7.90;6.13;;;9.50;99.90;;;;;;5095422;28;20474;-81
2022/11/28 13:06:20;;;;;;;11.97;7.23;;;9.60;99.90;;;;;;5081698;28;20593;-81
2022/11/28 13:09:24;;;;;;;8.13;5.83;;;9.60;99.90;;;;;;5075416;28;20476;-81
2022/11/28 13:12:03;;;;;;;8.60;7.10;;;9.60;99.90;;;;;;5089552;28;20454;-81
2022/11/28 13:14:40;;;;;;;9.07;5.80;;;9.50;99.90;;;;;;5084019;28;20479;-81
2022/11/28 13:17:21;;;;;;;10.00;6.60;;;9.50;99.90;;;;;;5079793;28;20965;-81
2022/11/28 13:19:55;;;;;;;9.60;7.00;;;9.60;99.90;;;;;;5093104;28;21056;-79